Gold Coast Seaway, Queensland

11:28 AM AEST on March 29, 2015 (GMT +1000)
Labrador | | Change Station
CLOSE
Current Station
Personal Weather Station
Location: Gold Coast, Queensland
Elevation: 16 ft
Nearby Weather Stations

Elev 16 ft 27.94 °S, 153.41 °E | Updated 47 minutes ago

Clear
Clear
83.3 °F
Feels Like 85 °F
N
9.2
Wind Variable Wind from East
Gusts 9.2 mph

Today
High -- | Low -- °F
--% Chance of Precip.
Yesterday
High -- | Low -- °F
Precip. -- in
5:54 AM 5:47 PM
Waxing Gibbous, 67% visible
Pressure 30.21 in
Visibility 6.2 miles
Clouds
Heat Index 85 °F
Dew Point 64 °F
Humidity 52%
Rainfall 0.00 in
Snow Depth Not available.
UV 0.0 out of 12
Pollen Not available.
Air Quality Not available.
Flu Activity Not available.
METAR YBCG 290100Z AUTO 03009KT 9999 // NCD 27/17 Q1023

More Conditions Fewer Conditions

Pressure 30.21 in
Visibility 6.2 miles
Clouds
Heat Index 85 °F
Dew Point 64 °F
Humidity 52%
Rainfall 0.00 in
Snow Depth Not available.
UV 0.0 out of 12
Pollen Not available.
Air Quality Not available.
Flu Activity Not available.
METAR YBCG 290100Z AUTO 03009KT 9999 // NCD 27/17 Q1023

More Conditions Fewer Conditions

10-Day Weather Forecast

Almanac

Astronomy

Mar. 29, 2015 Rise Set
Actual Time
Civil Twilight
Nautical Twilight
Astronomical Twilight
Moon
Length of Visible Light
Length of Day
Tomorrow will be .
, % of the Moon is Illuminated

Today's Extremes

Country Highs Country Lows

Community

WunderPhotos

Upload Photos

1,809,146 photos uploaded!

WunderBlogs® & News

Nearby

Air Quality

  Air Quality AQ Index Pollutant
Not available.

Snow Depth

Station Depth Elevation

Earthquake Activity

City Distance Mag. Time & Date
Minimum magnitude displayed is 2.5.

Coastal Water Temperatures

Place Temperature

Stations

Nearby Weather Stations

Station Location Temp. Windchill Dew Point Humidity Wind Precip. Elev Updated Type